createdAt,value
2023-09-27T00:02:39.228Z,81.36
2023-09-27T00:07:26.659Z,81.49
2023-09-27T00:12:16.906Z,81.46
2023-09-27T00:17:06.434Z,81.26
2023-09-27T00:21:53.698Z,81.32
2023-09-27T00:26:40.962Z,81.18
2023-09-27T00:31:30.783Z,81.82
2023-09-27T00:36:18.198Z,81.68
2023-09-27T00:41:05.654Z,81.47
2023-09-27T00:45:54.903Z,81.90
2023-09-27T00:50:45.318Z,82.17
2023-09-27T00:55:32.584Z,82.36
2023-09-27T01:00:20.917Z,82.17
2023-09-27T01:05:08.903Z,82.54
2023-09-27T01:09:58.795Z,82.17
2023-09-27T01:14:46.594Z,82.69
2023-09-27T01:19:34.705Z,82.53
2023-09-27T01:24:24.514Z,82.32
2023-09-27T01:29:11.809Z,82.86
2023-09-27T01:34:00.694Z,82.94
2023-09-27T01:38:47.834Z,82.65
2023-09-27T01:43:37.639Z,82.82
2023-09-27T01:48:24.833Z,83.22
2023-09-27T01:53:12.222Z,83.20
2023-09-27T01:58:00.420Z,82.66
2023-09-27T02:02:52.805Z,83.08
2023-09-27T02:07:40.662Z,83.16
2023-09-27T02:12:27.792Z,83.02
2023-09-27T02:17:15.102Z,83.52
2023-09-27T02:22:04.937Z,83.27
2023-09-27T02:26:52.260Z,83.77
2023-09-27T02:31:39.642Z,83.40
2023-09-27T02:36:27.361Z,83.66
2023-09-27T02:41:17.171Z,83.45
2023-09-27T02:46:04.483Z,84.05
2023-09-27T02:50:52.378Z,83.78
2023-09-27T02:55:39.590Z,83.89
2023-09-27T03:00:33.010Z,84.04
2023-09-27T03:05:23.319Z,83.95
2023-09-27T03:10:10.996Z,84.12
2023-09-27T03:14:58.638Z,83.90
2023-09-27T03:19:50.122Z,84.52
2023-09-27T03:24:38.990Z,84.26
2023-09-27T03:29:28.878Z,84.59
2023-09-27T03:34:16.338Z,84.41
2023-09-27T03:39:08.062Z,84.21
2023-09-27T03:43:55.520Z,84.62
2023-09-27T03:48:42.818Z,84.26
2023-09-27T03:53:30.267Z,84.43
2023-09-27T03:58:20.133Z,84.47
2023-09-27T04:03:07.593Z,84.70
2023-09-27T04:07:55.060Z,84.90
2023-09-27T04:12:42.376Z,84.46
2023-09-27T04:17:32.237Z,84.96
2023-09-27T04:22:20.214Z,85.13
2023-09-27T04:27:07.432Z,85.00
2023-09-27T04:31:54.762Z,85.11
2023-09-27T04:36:44.692Z,85.54
2023-09-27T04:41:31.937Z,85.16
2023-09-27T04:46:19.840Z,85.50
2023-09-27T04:51:07.272Z,85.34
2023-09-27T04:55:57.179Z,85.58
2023-09-27T05:00:44.472Z,85.75
2023-09-27T05:05:35.119Z,85.57
2023-09-27T05:10:22.419Z,85.71
2023-09-27T05:15:12.425Z,85.78
2023-09-27T05:19:59.654Z,85.84
2023-09-27T05:24:46.873Z,86.14
2023-09-27T05:29:34.028Z,85.78
2023-09-27T05:34:24.131Z,85.83
2023-09-27T05:39:11.590Z,86.04
2023-09-27T05:43:58.861Z,86.50
2023-09-27T05:48:46.434Z,86.40
2023-09-27T05:53:37.547Z,86.61
2023-09-27T05:58:24.788Z,86.50
2023-09-27T06:03:12.047Z,86.51
2023-09-27T06:08:03.224Z,86.76
2023-09-27T06:12:53.207Z,86.90
2023-09-27T06:17:43.578Z,86.84
2023-09-27T06:22:30.807Z,87.31
2023-09-27T06:27:18.218Z,87.30
2023-09-27T06:32:08.339Z,87.12
2023-09-27T06:36:55.632Z,87.37
2023-09-27T06:41:43.045Z,87.22
2023-09-27T06:46:42.964Z,87.55
2023-09-27T06:51:38.241Z,87.40
2023-09-27T06:56:25.421Z,87.78
2023-09-27T07:01:12.771Z,87.78
2023-09-27T07:06:00.437Z,88.27
2023-09-27T07:11:04.109Z,88.35
2023-09-27T07:15:53.475Z,88.07
2023-09-27T07:20:41.935Z,88.26
2023-09-27T07:25:29.170Z,88.39
2023-09-27T07:30:21.622Z,88.05
2023-09-27T07:35:09.657Z,88.48
2023-09-27T07:39:56.964Z,88.18
2023-09-27T07:44:44.261Z,88.18
2023-09-27T07:49:34.139Z,88.07
2023-09-27T07:54:21.336Z,88.04
2023-09-27T07:59:08.859Z,88.25
2023-09-27T08:03:56.339Z,88.05
2023-09-27T08:08:46.862Z,87.88
2023-09-27T08:13:34.315Z,87.96
2023-09-27T08:18:21.844Z,88.03
2023-09-27T08:23:09.493Z,87.42
2023-09-27T08:27:59.434Z,87.53
2023-09-27T08:32:46.892Z,87.66
2023-09-27T08:37:34.148Z,87.01
2023-09-27T08:42:22.029Z,87.11
2023-09-27T08:47:12.069Z,87.29
2023-09-27T08:51:59.393Z,86.80
2023-09-27T08:56:49.573Z,86.56
2023-09-27T09:01:40.100Z,86.58
2023-09-27T09:06:30.194Z,86.73
2023-09-27T09:11:17.532Z,86.95
2023-09-27T09:16:14.782Z,86.60
2023-09-27T09:21:02.235Z,86.61
2023-09-27T09:25:52.112Z,86.78
2023-09-27T09:30:40.899Z,86.92
2023-09-27T09:35:31.852Z,87.14
2023-09-27T09:40:19.054Z,86.75
2023-09-27T09:45:10.425Z,86.69
2023-09-27T09:49:57.647Z,86.85
2023-09-27T09:54:46.625Z,86.54
2023-09-27T09:59:38.100Z,86.40
2023-09-27T10:04:29.667Z,84.87
2023-09-27T10:09:18.455Z,84.57
2023-09-27T10:14:06.811Z,82.79
2023-09-27T10:18:55.723Z,82.05
2023-09-27T10:24:05.303Z,81.93
2023-09-27T10:29:14.203Z,82.11
2023-09-27T10:34:01.581Z,82.66
2023-09-27T10:39:04.399Z,82.15
2023-09-27T10:43:51.832Z,81.61
2023-09-27T10:48:39.314Z,81.14
2023-09-27T10:53:29.353Z,79.47
2023-09-27T10:58:19.998Z,78.71
2023-09-27T11:03:28.317Z,77.43
2023-09-27T11:08:25.934Z,76.99
2023-09-27T11:13:25.089Z,76.49
2023-09-27T11:18:13.415Z,75.05
2023-09-27T11:23:01.630Z,73.41
2023-09-27T11:27:48.861Z,72.44
2023-09-27T11:32:54.783Z,70.35
2023-09-27T11:37:42.254Z,71.14
2023-09-27T11:42:29.502Z,70.75
2023-09-27T11:47:16.879Z,70.32
2023-09-27T11:52:07.182Z,69.66
2023-09-27T11:56:54.675Z,68.94
2023-09-27T12:01:42.051Z,68.71
2023-09-27T12:06:29.646Z,68.01
2023-09-27T12:11:19.810Z,67.62
2023-09-27T12:16:07.180Z,66.98
2023-09-27T12:20:54.656Z,66.47
2023-09-27T12:25:41.906Z,65.53
2023-09-27T12:30:32.151Z,65.35
2023-09-27T12:35:19.322Z,65.95
2023-09-27T12:40:08.211Z,65.57
2023-09-27T12:44:55.387Z,65.40
2023-09-27T12:49:45.278Z,65.17
2023-09-27T12:54:32.448Z,65.42
2023-09-27T12:59:19.774Z,65.51
2023-09-27T13:04:07.395Z,65.28
2023-09-27T13:08:57.613Z,64.54
2023-09-27T13:13:44.777Z,64.54
2023-09-27T13:18:31.889Z,64.86
2023-09-27T13:23:19.419Z,64.57
2023-09-27T13:28:09.418Z,63.86
2023-09-27T13:32:56.653Z,63.72
2023-09-27T13:37:43.904Z,63.65
2023-09-27T13:42:31.058Z,62.96
2023-09-27T13:47:20.937Z,63.13
2023-09-27T13:52:08.076Z,62.77
2023-09-27T13:56:55.217Z,62.59
2023-09-27T14:01:42.389Z,62.62
2023-09-27T14:06:32.181Z,62.71
2023-09-27T14:11:19.598Z,63.46
2023-09-27T14:16:06.819Z,63.39
2023-09-27T14:20:54.288Z,63.66
2023-09-27T14:25:44.199Z,63.87
2023-09-27T14:30:31.474Z,63.85
2023-09-27T14:35:18.924Z,63.80
2023-09-27T14:40:07.645Z,63.88
2023-09-27T14:44:57.499Z,63.99
2023-09-27T14:49:44.770Z,64.06
2023-09-27T14:54:31.954Z,64.74
2023-09-27T14:59:19.156Z,64.19
2023-09-27T15:04:09.389Z,64.75
2023-09-27T15:08:56.626Z,64.96
2023-09-27T15:13:43.724Z,65.09
2023-09-27T15:18:31.147Z,65.22
2023-09-27T15:23:21.229Z,65.31
2023-09-27T15:28:08.578Z,65.54
2023-09-27T15:32:55.691Z,65.85
2023-09-27T15:37:52.003Z,65.99
2023-09-27T15:42:41.820Z,65.86
2023-09-27T15:47:29.089Z,65.91
2023-09-27T15:52:16.261Z,66.37
2023-09-27T15:57:03.450Z,66.62
2023-09-27T16:01:53.278Z,66.46
2023-09-27T16:06:40.542Z,66.64
2023-09-27T16:11:27.914Z,66.75
2023-09-27T16:16:15.056Z,66.78
2023-09-27T16:21:04.885Z,66.61
2023-09-27T16:25:52.050Z,66.59
2023-09-27T16:30:40.419Z,66.92
2023-09-27T16:35:28.275Z,67.46
2023-09-27T16:40:18.456Z,67.10
2023-09-27T16:45:06.656Z,67.28
2023-09-27T16:49:53.858Z,67.73
2023-09-27T16:54:41.245Z,68.18
2023-09-27T16:59:31.243Z,67.75
2023-09-27T17:04:18.517Z,68.54
2023-09-27T17:09:05.881Z,68.29
2023-09-27T17:13:53.390Z,68.49
2023-09-27T17:18:43.428Z,69.34
2023-09-27T17:23:30.617Z,69.87
2023-09-27T17:28:17.857Z,70.09
2023-09-27T17:33:05.803Z,70.50
2023-09-27T17:37:55.685Z,70.69
2023-09-27T17:42:42.879Z,71.11
2023-09-27T17:47:30.170Z,71.13
2023-09-27T17:52:17.328Z,71.24
2023-09-27T17:57:07.186Z,71.09
2023-09-27T18:01:54.406Z,71.68
2023-09-27T18:06:41.659Z,71.87
2023-09-27T18:11:28.751Z,72.38
2023-09-27T18:16:19.746Z,72.11
2023-09-27T18:21:06.892Z,72.45
2023-09-27T18:25:54.003Z,72.43
2023-09-27T18:30:41.138Z,72.47
2023-09-27T18:35:31.398Z,73.17
2023-09-27T18:40:19.567Z,73.23
2023-09-27T18:45:08.331Z,73.62
2023-09-27T18:49:55.557Z,73.18
2023-09-27T18:54:45.527Z,73.55
2023-09-27T18:59:32.805Z,73.49
2023-09-27T19:04:20.243Z,73.83
2023-09-27T19:09:07.569Z,73.75
2023-09-27T19:13:57.661Z,73.95
2023-09-27T19:18:45.106Z,73.97
2023-09-27T19:23:33.187Z,73.96
2023-09-27T19:28:21.882Z,74.29
2023-09-27T19:33:12.017Z,74.33
2023-09-27T19:37:59.386Z,74.49
2023-09-27T19:42:46.690Z,74.24
2023-09-27T19:47:36.165Z,74.35
2023-09-27T19:52:26.399Z,74.66
2023-09-27T19:57:13.737Z,74.68
2023-09-27T20:02:01.149Z,74.10
2023-09-27T20:06:48.532Z,74.58
2023-09-27T20:11:38.763Z,74.54
2023-09-27T20:16:26.195Z,74.33
2023-09-27T20:21:14.086Z,73.73
2023-09-27T20:26:02.136Z,73.43
2023-09-27T20:30:52.152Z,73.45
2023-09-27T20:35:39.604Z,74.01
2023-09-27T20:40:27.175Z,73.64
2023-09-27T20:45:14.696Z,73.43
2023-09-27T20:50:05.123Z,73.50
2023-09-27T20:54:52.557Z,73.85
2023-09-27T20:59:39.856Z,73.83
2023-09-27T21:04:27.368Z,73.42
2023-09-27T21:09:17.493Z,73.29
2023-09-27T21:14:05.305Z,73.31
2023-09-27T21:18:53.064Z,73.69
2023-09-27T21:23:40.366Z,73.37
2023-09-27T21:28:30.233Z,73.34
2023-09-27T21:33:17.493Z,73.34
2023-09-27T21:38:05.174Z,73.48
2023-09-27T21:42:52.611Z,73.50
2023-09-27T21:47:42.547Z,73.77
2023-09-27T21:52:29.900Z,73.54
2023-09-27T21:57:17.277Z,73.70
2023-09-27T22:02:04.509Z,74.16
2023-09-27T22:06:54.487Z,73.54
2023-09-27T22:11:41.829Z,73.72
2023-09-27T22:16:29.178Z,74.41
2023-09-27T22:21:24.049Z,74.36
2023-09-27T22:26:16.343Z,74.39
2023-09-27T22:31:04.482Z,74.51
2023-09-27T22:36:01.832Z,74.64
2023-09-27T22:40:49.197Z,74.73
2023-09-27T22:45:39.576Z,74.71
2023-09-27T22:50:27.020Z,73.95
2023-09-27T22:55:14.460Z,74.19
2023-09-27T23:00:01.790Z,74.07
2023-09-27T23:04:51.832Z,73.89
2023-09-27T23:09:39.095Z,74.24
2023-09-27T23:14:26.295Z,74.33
2023-09-27T23:19:14.401Z,74.03
2023-09-27T23:24:04.929Z,73.81
2023-09-27T23:28:52.207Z,73.54
2023-09-27T23:33:40.789Z,73.66
2023-09-27T23:38:28.027Z,73.51
2023-09-27T23:43:17.948Z,73.77
2023-09-27T23:48:08.261Z,73.65
2023-09-27T23:52:55.589Z,73.79
2023-09-27T23:57:43.538Z,74.36
